logo tempoitalia

Diretta Meteo Caslav, Repubblica Cecamartedì 17 maggio ore 06:00

Mappa
Sereno 15 °C Coperto 24 Ore: T.min 10 T.max 26
Ponente Nord Km/h 3.7 Punto di rugiada: 15 °C Umidità: 100% Visibilità: 10 Km
Il sole sorge alle: 05:07 Il sole tramonta alle: 20:41
17 Maggio 2022 06:00 tempo osservato: Coperto Coperto 15 100 1017 vento: Nord N 3.7
17 Maggio 2022 05:30 tempo osservato: Coperto Coperto 15 100 1017 vento: Nord N 3.7
17 Maggio 2022 05:00 tempo osservato: Sereno Sereno 15 93 1017 vento: Nord N 5.5
17 Maggio 2022 04:30 tempo osservato: Sereno Sereno 14 100 1017 vento: Nord SO 9.3
17 Maggio 2022 04:00 tempo osservato: Sereno Sereno 15 100 1017 vento: Nord N 5.5
17 Maggio 2022 03:30 tempo osservato: Pioggia Pioggia 15 93 1017 vento: Nord E/SE 7.4
17 Maggio 2022 03:00 tempo osservato: Pioggia Pioggia 16 87 1018 vento: Nord N/NO 7.4
17 Maggio 2022 02:30 tempo osservato: Pioggia Temporale nelle vicinanze Pioggia Temporale nelle vicinanze 16 93 1018 vento: Nord O 9.3
17 Maggio 2022 02:00 tempo osservato: Pioggia Pioggia 17 88 1017 vento: Nord N 0
17 Maggio 2022 01:30 tempo osservato: Pioggia Pioggia 17 88 1017 vento: Nord N 3.7
17 Maggio 2022 01:00 tempo osservato: Coperto Coperto 16 93 1018 vento: Nord SO 9.3
17 Maggio 2022 00:30 tempo osservato: Coperto Coperto 16 93 1017 vento: Nord NO 7.4
17 Maggio 2022 00:00 tempo osservato: Coperto Coperto 17 82 1017 vento: Nord N 3.7
16 Maggio 2022 23:30 tempo osservato: Sereno Sereno 17 82 1017 vento: Nord S/SO 9.3
16 Maggio 2022 23:00 tempo osservato: Pioggia Pioggia 19 63 1017 vento: Nord O 9.3
16 Maggio 2022 22:30 tempo osservato: Sereno Sereno 21 49 1017 vento: Nord O/NO 13
16 Maggio 2022 22:00 tempo osservato: Sereno Sereno 21 49 1017 vento: Nord N 3.7
16 Maggio 2022 21:30 tempo osservato: Sereno Sereno 21 46 1017 vento: Nord N 5.5
16 Maggio 2022 21:00 tempo osservato: Sereno Sereno 21 46 1016 vento: Nord E 7.4
16 Maggio 2022 20:30 tempo osservato: Sereno Sereno 23 40 1016 vento: Nord E/NE 9.3
16 Maggio 2022 20:00 tempo osservato: Sereno Sereno 22 43 1016 vento: Nord E 9.3
16 Maggio 2022 19:30 tempo osservato: Sereno Sereno 24 38 1016 vento: Nord E/NE 9.3
16 Maggio 2022 19:00 tempo osservato: Sereno Sereno 25 36 1016 vento: Nord E/NE 11.1
16 Maggio 2022 18:30 tempo osservato: Sereno Sereno 25 36 1016 vento: Nord NE 9.3
16 Maggio 2022 18:00 tempo osservato: Sereno Sereno 25 38 1016 vento: Nord N 3.7
16 Maggio 2022 17:30 tempo osservato: Sereno Sereno 25 33 1016 vento: Nord E/SE 7.4
16 Maggio 2022 17:00 tempo osservato: Sereno Sereno 25 33 1016 vento: Nord E/SE 7.4
16 Maggio 2022 16:30 tempo osservato: Sereno Sereno 26 31 1017 vento: Nord N 5.5
16 Maggio 2022 16:00 tempo osservato: Sereno Sereno 25 31 1017 vento: Nord N 1.8
16 Maggio 2022 15:30 tempo osservato: Sereno Sereno 25 36 1017 vento: Nord N 5.5
16 Maggio 2022 15:00 tempo osservato: Sereno Sereno 25 33 1017 vento: Nord E 7.4
16 Maggio 2022 14:30 tempo osservato: Sereno Sereno 25 31 1018 vento: Nord E/NE 9.3
16 Maggio 2022 14:00 tempo osservato: Sereno Sereno 24 35 1018 vento: Nord N 5.5
16 Maggio 2022 13:30 tempo osservato: Sereno Sereno 24 35 1019 vento: Nord N/NE 7.4
16 Maggio 2022 13:00 tempo osservato: Sereno Sereno 24 38 1019 vento: Nord N 5.5
16 Maggio 2022 12:30 tempo osservato: Sereno Sereno 23 38 1019 vento: Nord N 5.5
16 Maggio 2022 12:00 tempo osservato: Sereno Sereno 23 38 1019 vento: Nord N 5.5
16 Maggio 2022 11:30 tempo osservato: Sereno Sereno 22 46 1019 vento: Nord N 3.7
16 Maggio 2022 11:00 tempo osservato: Sereno Sereno 21 49 1019 vento: Nord N/NE 7.4
16 Maggio 2022 10:30 tempo osservato: Sereno Sereno 20 59 1019 vento: Nord N 3.7
16 Maggio 2022 10:00 tempo osservato: Sereno Sereno 19 55 1019 vento: Nord N 5.5
16 Maggio 2022 09:30 tempo osservato: Sereno Sereno 18 59 1020 vento: Nord N 3.7
16 Maggio 2022 09:00 tempo osservato: Sereno Sereno 17 63 1020 vento: Nord N 3.7
16 Maggio 2022 08:30 tempo osservato: Sereno Sereno 16 63 1020 vento: Nord N 3.7
16 Maggio 2022 08:00 tempo osservato: Sereno Sereno 14 71 1019 vento: Nord E/SE 7.4
16 Maggio 2022 07:30 tempo osservato: Sereno Sereno 12 76 1019 vento: Nord N 5.5
16 Maggio 2022 07:00 tempo osservato: Sereno Sereno 10 81 1019 vento: Nord N 3.7